McClurg, Missouri
Current Conditions -  °F | °C
As of 6:45 AM on Friday 28 Nov 2014 (Local Time) from KBBG Reporting Station
Clear Clear  
Wind Chill: 27°   Ceiling: Unl
Heat Index: 34°   Visibility: 10mi
Dew Point: 27°   Wind: 8mph
Humidity: 75%   Direction: 160°SSE
Pressure: 30.21"   Gusts: NA
Location:  36.78°N, 92.77°W
Report Text: KBBG 281245Z 16007KT 10SM SKC 01/M03 A3021
Loading
Personal Weather Stations






























Interactive Weather Map New forecast layout! Learn more

10-Day Weather Forecast

Advertisements
Track Severe Weather on mobile